sensor_id;sensor_type;location;lat;lon;timestamp;temperature;humidity
11538;DHT22;50159;49.426;11.182;2022-07-03T00:01:35;14.90;99.90
11538;DHT22;50159;49.426;11.182;2022-07-03T00:04:02;14.90;99.90
11538;DHT22;50159;49.426;11.182;2022-07-03T00:06:31;14.80;99.90
11538;DHT22;50159;49.426;11.182;2022-07-03T00:09:00;14.80;99.90
11538;DHT22;50159;49.426;11.182;2022-07-03T00:11:30;14.80;99.90
11538;DHT22;50159;49.426;11.182;2022-07-03T00:13:57;14.80;99.90
11538;DHT22;50159;49.426;11.182;2022-07-03T00:16:25;14.70;99.90
11538;DHT22;50159;49.426;11.182;2022-07-03T00:18:52;14.70;99.90
11538;DHT22;50159;49.426;11.182;2022-07-03T00:21:28;14.70;99.90
11538;DHT22;50159;49.426;11.182;2022-07-03T00:24:08;14.60;99.90
11538;DHT22;50159;49.426;11.182;2022-07-03T00:26:39;14.60;99.90
11538;DHT22;50159;49.426;11.182;2022-07-03T00:29:09;14.60;99.90
11538;DHT22;50159;49.426;11.182;2022-07-03T00:31:36;14.50;99.90
11538;DHT22;50159;49.426;11.182;2022-07-03T00:34:08;14.50;99.90
11538;DHT22;50159;49.426;11.182;2022-07-03T00:36:38;14.50;99.90
11538;DHT22;50159;49.426;11.182;2022-07-03T00:39:05;14.40;99.90
11538;DHT22;50159;49.426;11.182;2022-07-03T00:41:34;14.40;99.90
11538;DHT22;50159;49.426;11.182;2022-07-03T00:44:03;14.40;99.90
11538;DHT22;50159;49.426;11.182;2022-07-03T00:46:30;14.40;99.90
11538;DHT22;50159;49.426;11.182;2022-07-03T00:48:58;14.30;99.90
11538;DHT22;50159;49.426;11.182;2022-07-03T00:51:27;14.30;99.90
11538;DHT22;50159;49.426;11.182;2022-07-03T00:53:57;14.30;99.90
11538;DHT22;50159;49.426;11.182;2022-07-03T00:56:27;14.30;99.90
11538;DHT22;50159;49.426;11.182;2022-07-03T00:58:59;14.20;99.90
11538;DHT22;50159;49.426;11.182;2022-07-03T01:01:32;14.20;99.90
11538;DHT22;50159;49.426;11.182;2022-07-03T01:04:17;14.10;99.90
11538;DHT22;50159;49.426;11.182;2022-07-03T01:06:57;14.10;99.90
11538;DHT22;50159;49.426;11.182;2022-07-03T01:09:42;14.10;99.90
11538;DHT22;50159;49.426;11.182;2022-07-03T01:12:50;14.10;99.90
11538;DHT22;50159;49.426;11.182;2022-07-03T01:21:19;14.00;99.90
11538;DHT22;50159;49.426;11.182;2022-07-03T01:26:38;13.90;99.90
11538;DHT22;50159;49.426;11.182;2022-07-03T01:29:08;13.90;99.90
11538;DHT22;50159;49.426;11.182;2022-07-03T01:31:41;13.90;99.90
11538;DHT22;50159;49.426;11.182;2022-07-03T01:34:12;13.90;99.90
11538;DHT22;50159;49.426;11.182;2022-07-03T01:36:43;13.80;99.90
11538;DHT22;50159;49.426;11.182;2022-07-03T01:39:16;13.80;99.90
11538;DHT22;50159;49.426;11.182;2022-07-03T01:42:05;13.80;99.90
11538;DHT22;50159;49.426;11.182;2022-07-03T01:44:35;13.70;99.90
11538;DHT22;50159;49.426;11.182;2022-07-03T01:47:06;13.70;99.90
11538;DHT22;50159;49.426;11.182;2022-07-03T01:49:34;13.70;99.90
11538;DHT22;50159;49.426;11.182;2022-07-03T01:52:02;13.70;99.90
11538;DHT22;50159;49.426;11.182;2022-07-03T01:54:30;13.60;99.90
11538;DHT22;50159;49.426;11.182;2022-07-03T01:56:58;13.60;99.90
11538;DHT22;50159;49.426;11.182;2022-07-03T01:59:29;13.60;99.90
11538;DHT22;50159;49.426;11.182;2022-07-03T02:02:09;13.50;99.90
11538;DHT22;50159;49.426;11.182;2022-07-03T02:04:48;13.50;99.90
11538;DHT22;50159;49.426;11.182;2022-07-03T02:07:40;13.50;99.90
11538;DHT22;50159;49.426;11.182;2022-07-03T02:10:16;13.50;99.90
11538;DHT22;50159;49.426;11.182;2022-07-03T02:12:52;13.40;99.90
11538;DHT22;50159;49.426;11.182;2022-07-03T02:15:30;13.40;99.90
11538;DHT22;50159;49.426;11.182;2022-07-03T02:18:08;13.40;99.90
11538;DHT22;50159;49.426;11.182;2022-07-03T02:20:46;13.40;99.90
11538;DHT22;50159;49.426;11.182;2022-07-03T02:23:25;13.30;99.90
11538;DHT22;50159;49.426;11.182;2022-07-03T02:26:00;13.30;99.90
11538;DHT22;50159;49.426;11.182;2022-07-03T02:31:25;13.20;99.90
11538;DHT22;50159;49.426;11.182;2022-07-03T02:33:57;13.20;99.90
11538;DHT22;50159;49.426;11.182;2022-07-03T02:36:28;13.20;99.90
11538;DHT22;50159;49.426;11.182;2022-07-03T02:38:57;13.20;99.90
11538;DHT22;50159;49.426;11.182;2022-07-03T02:41:46;13.10;99.90
11538;DHT22;50159;49.426;11.182;2022-07-03T02:44:36;13.10;99.90
11538;DHT22;50159;49.426;11.182;2022-07-03T02:50:02;13.10;99.90
11538;DHT22;50159;49.426;11.182;2022-07-03T02:55:43;13.00;99.90
11538;DHT22;50159;49.426;11.182;2022-07-03T02:58:25;13.00;99.90
11538;DHT22;50159;49.426;11.182;2022-07-03T03:06:37;12.90;99.90
11538;DHT22;50159;49.426;11.182;2022-07-03T03:09:14;12.90;99.90
11538;DHT22;50159;49.426;11.182;2022-07-03T03:11:47;12.90;99.90
11538;DHT22;50159;49.426;11.182;2022-07-03T03:14:19;12.90;99.90
11538;DHT22;50159;49.426;11.182;2022-07-03T03:16:50;12.80;99.90
11538;DHT22;50159;49.426;11.182;2022-07-03T03:19:22;12.80;99.90
11538;DHT22;50159;49.426;11.182;2022-07-03T03:24:42;12.80;99.90
11538;DHT22;50159;49.426;11.182;2022-07-03T03:27:10;12.80;99.90
11538;DHT22;50159;49.426;11.182;2022-07-03T03:29:39;12.80;99.90
11538;DHT22;50159;49.426;11.182;2022-07-03T03:32:07;12.80;99.90
11538;DHT22;50159;49.426;11.182;2022-07-03T03:34:34;12.80;99.90
11538;DHT22;50159;49.426;11.182;2022-07-03T03:37:02;12.80;99.90
11538;DHT22;50159;49.426;11.182;2022-07-03T03:39:29;12.80;99.90
11538;DHT22;50159;49.426;11.182;2022-07-03T03:41:56;12.80;99.90
11538;DHT22;50159;49.426;11.182;2022-07-03T03:44:23;12.80;99.90
11538;DHT22;50159;49.426;11.182;2022-07-03T03:46:50;12.80;99.90
11538;DHT22;50159;49.426;11.182;2022-07-03T03:49:18;12.80;99.90
11538;DHT22;50159;49.426;11.182;2022-07-03T03:51:45;12.80;99.90
11538;DHT22;50159;49.426;11.182;2022-07-03T03:54:12;12.80;99.90
11538;DHT22;50159;49.426;11.182;2022-07-03T03:56:39;12.80;99.90
11538;DHT22;50159;49.426;11.182;2022-07-03T03:59:06;12.80;99.90
11538;DHT22;50159;49.426;11.182;2022-07-03T04:01:33;12.80;99.90
11538;DHT22;50159;49.426;11.182;2022-07-03T04:03:59;12.90;99.90
11538;DHT22;50159;49.426;11.182;2022-07-03T04:06:26;12.90;99.90
11538;DHT22;50159;49.426;11.182;2022-07-03T04:08:53;12.90;99.90
11538;DHT22;50159;49.426;11.182;2022-07-03T04:11:20;13.00;99.90
11538;DHT22;50159;49.426;11.182;2022-07-03T04:13:47;13.00;99.90
11538;DHT22;50159;49.426;11.182;2022-07-03T04:16:14;13.00;99.90
11538;DHT22;50159;49.426;11.182;2022-07-03T04:18:41;13.10;99.90
11538;DHT22;50159;49.426;11.182;2022-07-03T04:21:08;13.10;99.90
11538;DHT22;50159;49.426;11.182;2022-07-03T04:23:34;13.10;99.90
11538;DHT22;50159;49.426;11.182;2022-07-03T04:26:05;13.20;99.90
11538;DHT22;50159;49.426;11.182;2022-07-03T04:28:40;13.30;99.90
11538;DHT22;50159;49.426;11.182;2022-07-03T04:31:07;13.40;99.90
11538;DHT22;50159;49.426;11.182;2022-07-03T04:33:34;13.40;99.90
11538;DHT22;50159;49.426;11.182;2022-07-03T04:36:01;13.50;99.90
11538;DHT22;50159;49.426;11.182;2022-07-03T04:38:28;13.60;99.90
11538;DHT22;50159;49.426;11.182;2022-07-03T04:40:54;13.60;99.90
11538;DHT22;50159;49.426;11.182;2022-07-03T04:43:21;13.70;99.90
11538;DHT22;50159;49.426;11.182;2022-07-03T04:45:48;13.70;99.90
11538;DHT22;50159;49.426;11.182;2022-07-03T04:48:15;13.80;99.90
11538;DHT22;50159;49.426;11.182;2022-07-03T04:50:42;13.90;99.90
11538;DHT22;50159;49.426;11.182;2022-07-03T04:53:08;14.00;99.90
11538;DHT22;50159;49.426;11.182;2022-07-03T04:55:35;14.10;99.90
11538;DHT22;50159;49.426;11.182;2022-07-03T04:58:02;14.10;99.90
11538;DHT22;50159;49.426;11.182;2022-07-03T05:00:29;14.20;99.90
11538;DHT22;50159;49.426;11.182;2022-07-03T05:02:56;14.30;99.90
11538;DHT22;50159;49.426;11.182;2022-07-03T05:05:23;14.40;99.90
11538;DHT22;50159;49.426;11.182;2022-07-03T05:07:50;14.50;99.90
11538;DHT22;50159;49.426;11.182;2022-07-03T05:10:17;14.60;99.90
11538;DHT22;50159;49.426;11.182;2022-07-03T05:12:44;14.70;99.90
11538;DHT22;50159;49.426;11.182;2022-07-03T05:15:10;14.80;99.90
11538;DHT22;50159;49.426;11.182;2022-07-03T05:17:37;14.90;99.90
11538;DHT22;50159;49.426;11.182;2022-07-03T05:20:05;15.00;99.90
11538;DHT22;50159;49.426;11.182;2022-07-03T05:22:52;15.10;99.90
11538;DHT22;50159;49.426;11.182;2022-07-03T05:25:20;15.20;99.90
11538;DHT22;50159;49.426;11.182;2022-07-03T05:27:47;15.30;99.90
11538;DHT22;50159;49.426;11.182;2022-07-03T05:30:16;15.50;99.90
11538;DHT22;50159;49.426;11.182;2022-07-03T05:32:43;15.60;99.90
11538;DHT22;50159;49.426;11.182;2022-07-03T05:35:10;15.80;99.90
11538;DHT22;50159;49.426;11.182;2022-07-03T05:37:37;16.00;99.90
11538;DHT22;50159;49.426;11.182;2022-07-03T05:40:05;16.10;99.90
11538;DHT22;50159;49.426;11.182;2022-07-03T05:42:33;16.30;99.90
11538;DHT22;50159;49.426;11.182;2022-07-03T05:45:00;16.50;99.90
11538;DHT22;50159;49.426;11.182;2022-07-03T05:47:27;16.70;99.90
11538;DHT22;50159;49.426;11.182;2022-07-03T05:49:54;16.90;99.90
11538;DHT22;50159;49.426;11.182;2022-07-03T05:52:21;17.10;99.90
11538;DHT22;50159;49.426;11.182;2022-07-03T05:54:49;17.30;99.90
11538;DHT22;50159;49.426;11.182;2022-07-03T05:57:16;17.50;99.90
11538;DHT22;50159;49.426;11.182;2022-07-03T05:59:42;17.60;99.90
11538;DHT22;50159;49.426;11.182;2022-07-03T06:02:10;17.80;99.90
11538;DHT22;50159;49.426;11.182;2022-07-03T06:04:36;17.90;99.90
11538;DHT22;50159;49.426;11.182;2022-07-03T06:07:03;18.10;99.90
11538;DHT22;50159;49.426;11.182;2022-07-03T06:09:30;18.20;99.90
11538;DHT22;50159;49.426;11.182;2022-07-03T06:11:57;18.40;99.90
11538;DHT22;50159;49.426;11.182;2022-07-03T06:14:24;18.50;99.90
11538;DHT22;50159;49.426;11.182;2022-07-03T06:16:51;18.70;99.90
11538;DHT22;50159;49.426;11.182;2022-07-03T06:19:17;18.90;99.90
11538;DHT22;50159;49.426;11.182;2022-07-03T06:21:44;19.00;99.90
11538;DHT22;50159;49.426;11.182;2022-07-03T06:24:11;19.10;99.90
11538;DHT22;50159;49.426;11.182;2022-07-03T06:26:38;19.20;99.90
11538;DHT22;50159;49.426;11.182;2022-07-03T06:29:05;19.30;99.90
11538;DHT22;50159;49.426;11.182;2022-07-03T06:31:32;19.40;99.90
11538;DHT22;50159;49.426;11.182;2022-07-03T06:33:58;19.60;99.90
11538;DHT22;50159;49.426;11.182;2022-07-03T06:36:25;19.70;99.90
11538;DHT22;50159;49.426;11.182;2022-07-03T06:38:52;19.90;99.90
11538;DHT22;50159;49.426;11.182;2022-07-03T06:41:20;20.00;98.90
11538;DHT22;50159;49.426;11.182;2022-07-03T06:43:47;20.10;98.40
11538;DHT22;50159;49.426;11.182;2022-07-03T06:46:13;20.20;97.60
11538;DHT22;50159;49.426;11.182;2022-07-03T06:48:40;20.40;96.50
11538;DHT22;50159;49.426;11.182;2022-07-03T06:51:07;20.50;96.00
11538;DHT22;50159;49.426;11.182;2022-07-03T06:53:39;20.70;95.30
11538;DHT22;50159;49.426;11.182;2022-07-03T06:56:05;20.90;94.10
11538;DHT22;50159;49.426;11.182;2022-07-03T06:58:32;21.00;93.80
11538;DHT22;50159;49.426;11.182;2022-07-03T07:00:59;21.00;93.20
11538;DHT22;50159;49.426;11.182;2022-07-03T07:03:26;21.10;93.00
11538;DHT22;50159;49.426;11.182;2022-07-03T07:05:53;21.20;91.60
11538;DHT22;50159;49.426;11.182;2022-07-03T07:08:20;21.30;91.10
11538;DHT22;50159;49.426;11.182;2022-07-03T07:10:46;21.50;91.30
11538;DHT22;50159;49.426;11.182;2022-07-03T07:13:13;21.60;90.40
11538;DHT22;50159;49.426;11.182;2022-07-03T07:15:40;21.70;90.20
11538;DHT22;50159;49.426;11.182;2022-07-03T07:18:07;21.80;88.80
11538;DHT22;50159;49.426;11.182;2022-07-03T07:20:33;21.90;86.30
11538;DHT22;50159;49.426;11.182;2022-07-03T07:23:00;22.00;82.10
11538;DHT22;50159;49.426;11.182;2022-07-03T07:25:27;22.10;82.50
11538;DHT22;50159;49.426;11.182;2022-07-03T07:27:54;22.30;82.50
11538;DHT22;50159;49.426;11.182;2022-07-03T07:30:21;22.30;79.30
11538;DHT22;50159;49.426;11.182;2022-07-03T07:32:47;22.40;79.60
11538;DHT22;50159;49.426;11.182;2022-07-03T07:35:20;22.50;78.50
11538;DHT22;50159;49.426;11.182;2022-07-03T07:37:46;22.60;77.80
11538;DHT22;50159;49.426;11.182;2022-07-03T07:40:14;22.60;76.00
11538;DHT22;50159;49.426;11.182;2022-07-03T07:42:41;22.80;76.30
11538;DHT22;50159;49.426;11.182;2022-07-03T07:45:10;22.90;75.60
11538;DHT22;50159;49.426;11.182;2022-07-03T07:47:37;23.00;74.20
11538;DHT22;50159;49.426;11.182;2022-07-03T07:50:05;23.10;73.10
11538;DHT22;50159;49.426;11.182;2022-07-03T07:52:33;23.10;72.90
11538;DHT22;50159;49.426;11.182;2022-07-03T07:55:00;23.30;73.60
11538;DHT22;50159;49.426;11.182;2022-07-03T07:57:34;23.30;73.00
11538;DHT22;50159;49.426;11.182;2022-07-03T08:00:13;23.40;72.80
11538;DHT22;50159;49.426;11.182;2022-07-03T08:02:42;23.60;72.50
11538;DHT22;50159;49.426;11.182;2022-07-03T08:05:29;23.70;72.00
11538;DHT22;50159;49.426;11.182;2022-07-03T08:08:12;23.80;71.30
11538;DHT22;50159;49.426;11.182;2022-07-03T08:10:48;24.00;71.10
11538;DHT22;50159;49.426;11.182;2022-07-03T08:13:19;24.10;69.10
11538;DHT22;50159;49.426;11.182;2022-07-03T08:15:47;24.20;67.10
11538;DHT22;50159;49.426;11.182;2022-07-03T08:18:14;24.30;66.40
11538;DHT22;50159;49.426;11.182;2022-07-03T08:20:41;24.30;66.50
11538;DHT22;50159;49.426;11.182;2022-07-03T08:23:08;24.50;66.20
11538;DHT22;50159;49.426;11.182;2022-07-03T08:25:35;24.60;67.10
11538;DHT22;50159;49.426;11.182;2022-07-03T08:28:02;24.80;66.30
11538;DHT22;50159;49.426;11.182;2022-07-03T08:30:29;24.90;65.90
11538;DHT22;50159;49.426;11.182;2022-07-03T08:32:58;25.10;64.00
11538;DHT22;50159;49.426;11.182;2022-07-03T08:35:25;25.10;61.60
11538;DHT22;50159;49.426;11.182;2022-07-03T08:37:53;25.10;63.10
11538;DHT22;50159;49.426;11.182;2022-07-03T08:40:21;25.30;62.50
11538;DHT22;50159;49.426;11.182;2022-07-03T08:42:50;25.30;60.80
11538;DHT22;50159;49.426;11.182;2022-07-03T08:45:20;25.40;61.10
11538;DHT22;50159;49.426;11.182;2022-07-03T08:47:50;25.60;61.20
11538;DHT22;50159;49.426;11.182;2022-07-03T08:50:20;25.70;59.10
11538;DHT22;50159;49.426;11.182;2022-07-03T08:52:47;25.70;58.00
11538;DHT22;50159;49.426;11.182;2022-07-03T08:55:16;25.80;58.70
11538;DHT22;50159;49.426;11.182;2022-07-03T08:57:46;26.00;59.70
11538;DHT22;50159;49.426;11.182;2022-07-03T09:00:16;26.10;58.00
11538;DHT22;50159;49.426;11.182;2022-07-03T09:02:45;26.10;55.80
11538;DHT22;50159;49.426;11.182;2022-07-03T09:05:15;26.20;56.00
11538;DHT22;50159;49.426;11.182;2022-07-03T09:07:44;26.30;56.30
11538;DHT22;50159;49.426;11.182;2022-07-03T09:10:15;26.50;56.80
11538;DHT22;50159;49.426;11.182;2022-07-03T09:12:44;26.60;55.70
11538;DHT22;50159;49.426;11.182;2022-07-03T09:15:13;26.80;54.50
11538;DHT22;50159;49.426;11.182;2022-07-03T09:17:59;27.00;54.00
11538;DHT22;50159;49.426;11.182;2022-07-03T09:20:41;27.00;51.90
11538;DHT22;50159;49.426;11.182;2022-07-03T09:23:26;27.10;52.90
11538;DHT22;50159;49.426;11.182;2022-07-03T09:26:06;27.10;52.00
11538;DHT22;50159;49.426;11.182;2022-07-03T09:31:21;27.40;52.70
11538;DHT22;50159;49.426;11.182;2022-07-03T09:42:00;27.50;52.10
11538;DHT22;50159;49.426;11.182;2022-07-03T09:47:22;27.60;49.20
11538;DHT22;50159;49.426;11.182;2022-07-03T09:50:00;27.30;49.70
11538;DHT22;50159;49.426;11.182;2022-07-03T09:57:40;27.50;47.20
11538;DHT22;50159;49.426;11.182;2022-07-03T10:03:07;27.90;47.60
11538;DHT22;50159;49.426;11.182;2022-07-03T10:05:43;28.00;44.50
11538;DHT22;50159;49.426;11.182;2022-07-03T10:08:17;28.10;44.50
11538;DHT22;50159;49.426;11.182;2022-07-03T10:10:46;28.20;45.10
11538;DHT22;50159;49.426;11.182;2022-07-03T10:13:15;28.40;44.30
11538;DHT22;50159;49.426;11.182;2022-07-03T10:15:43;28.50;44.20
11538;DHT22;50159;49.426;11.182;2022-07-03T10:18:14;28.60;42.30
11538;DHT22;50159;49.426;11.182;2022-07-03T10:20:46;28.60;41.60
11538;DHT22;50159;49.426;11.182;2022-07-03T10:23:21;28.60;41.00
11538;DHT22;50159;49.426;11.182;2022-07-03T10:25:49;28.60;39.00
11538;DHT22;50159;49.426;11.182;2022-07-03T10:28:18;28.50;38.20
11538;DHT22;50159;49.426;11.182;2022-07-03T10:30:49;28.50;38.30
11538;DHT22;50159;49.426;11.182;2022-07-03T10:33:17;28.60;39.50
11538;DHT22;50159;49.426;11.182;2022-07-03T10:35:48;28.70;39.20
11538;DHT22;50159;49.426;11.182;2022-07-03T10:41:16;29.20;38.70
11538;DHT22;50159;49.426;11.182;2022-07-03T10:44:08;29.20;38.00
11538;DHT22;50159;49.426;11.182;2022-07-03T10:46:54;29.30;36.80
11538;DHT22;50159;49.426;11.182;2022-07-03T10:49:28;29.30;37.00
11538;DHT22;50159;49.426;11.182;2022-07-03T10:52:02;29.30;36.30
11538;DHT22;50159;49.426;11.182;2022-07-03T10:54:34;29.20;37.40
11538;DHT22;50159;49.426;11.182;2022-07-03T10:57:15;29.30;37.40
11538;DHT22;50159;49.426;11.182;2022-07-03T11:02:39;29.40;34.30
11538;DHT22;50159;49.426;11.182;2022-07-03T11:21:01;30.10;31.40
11538;DHT22;50159;49.426;11.182;2022-07-03T11:26:29;29.90;32.70
11538;DHT22;50159;49.426;11.182;2022-07-03T11:28:56;29.90;32.90
11538;DHT22;50159;49.426;11.182;2022-07-03T11:31:23;30.00;32.50
11538;DHT22;50159;49.426;11.182;2022-07-03T11:39:02;30.00;32.50
11538;DHT22;50159;49.426;11.182;2022-07-03T11:44:06;30.30;33.40
11538;DHT22;50159;49.426;11.182;2022-07-03T11:46:36;30.30;31.50
11538;DHT22;50159;49.426;11.182;2022-07-03T11:49:12;30.20;31.70
11538;DHT22;50159;49.426;11.182;2022-07-03T11:52:03;30.40;31.40
11538;DHT22;50159;49.426;11.182;2022-07-03T11:54:48;30.50;32.50
11538;DHT22;50159;49.426;11.182;2022-07-03T11:57:16;30.50;30.40
11538;DHT22;50159;49.426;11.182;2022-07-03T11:59:43;30.50;31.10
11538;DHT22;50159;49.426;11.182;2022-07-03T12:02:10;30.50;30.50
11538;DHT22;50159;49.426;11.182;2022-07-03T12:04:38;30.70;31.20
11538;DHT22;50159;49.426;11.182;2022-07-03T12:07:06;30.70;30.50
11538;DHT22;50159;49.426;11.182;2022-07-03T12:09:34;30.80;30.40
11538;DHT22;50159;49.426;11.182;2022-07-03T12:12:09;30.80;30.30
11538;DHT22;50159;49.426;11.182;2022-07-03T12:14:51;30.80;30.10
11538;DHT22;50159;49.426;11.182;2022-07-03T12:17:34;30.90;31.30
11538;DHT22;50159;49.426;11.182;2022-07-03T12:20:01;31.10;31.40
11538;DHT22;50159;49.426;11.182;2022-07-03T12:22:30;31.30;31.10
11538;DHT22;50159;49.426;11.182;2022-07-03T12:25:09;31.40;31.10
11538;DHT22;50159;49.426;11.182;2022-07-03T12:27:43;31.50;30.60
11538;DHT22;50159;49.426;11.182;2022-07-03T12:30:16;31.50;29.90
11538;DHT22;50159;49.426;11.182;2022-07-03T12:32:54;31.50;30.20
11538;DHT22;50159;49.426;11.182;2022-07-03T12:35:26;31.60;30.60
11538;DHT22;50159;49.426;11.182;2022-07-03T12:37:53;31.80;30.50
11538;DHT22;50159;49.426;11.182;2022-07-03T12:40:21;31.90;30.20
11538;DHT22;50159;49.426;11.182;2022-07-03T12:42:52;31.90;30.00
11538;DHT22;50159;49.426;11.182;2022-07-03T12:45:22;31.90;30.20
11538;DHT22;50159;49.426;11.182;2022-07-03T12:48:02;31.90;30.00
11538;DHT22;50159;49.426;11.182;2022-07-03T12:50:48;32.00;29.90
11538;DHT22;50159;49.426;11.182;2022-07-03T12:53:28;32.10;29.60
11538;DHT22;50159;49.426;11.182;2022-07-03T12:56:06;32.30;29.50
11538;DHT22;50159;49.426;11.182;2022-07-03T12:58:36;32.50;30.30
11538;DHT22;50159;49.426;11.182;2022-07-03T13:01:58;32.50;29.20
11538;DHT22;50159;49.426;11.182;2022-07-03T13:04:35;32.30;28.50
11538;DHT22;50159;49.426;11.182;2022-07-03T13:07:05;32.10;28.90
11538;DHT22;50159;49.426;11.182;2022-07-03T13:09:34;32.10;29.70
11538;DHT22;50159;49.426;11.182;2022-07-03T13:12:03;32.20;29.70
11538;DHT22;50159;49.426;11.182;2022-07-03T13:14:30;32.60;29.90
11538;DHT22;50159;49.426;11.182;2022-07-03T13:16:57;32.80;29.10
11538;DHT22;50159;49.426;11.182;2022-07-03T13:19:25;32.80;28.80
11538;DHT22;50159;49.426;11.182;2022-07-03T13:21:55;32.90;28.70
11538;DHT22;50159;49.426;11.182;2022-07-03T13:24:23;33.10;29.00
11538;DHT22;50159;49.426;11.182;2022-07-03T13:26:51;33.30;28.80
11538;DHT22;50159;49.426;11.182;2022-07-03T13:29:21;33.30;28.70
11538;DHT22;50159;49.426;11.182;2022-07-03T13:31:50;33.30;27.90
11538;DHT22;50159;49.426;11.182;2022-07-03T13:34:18;33.40;28.50
11538;DHT22;50159;49.426;11.182;2022-07-03T13:36:45;33.50;27.80
11538;DHT22;50159;49.426;11.182;2022-07-03T13:39:12;33.50;28.30
11538;DHT22;50159;49.426;11.182;2022-07-03T13:41:38;33.60;27.80
11538;DHT22;50159;49.426;11.182;2022-07-03T13:44:05;33.60;27.00
11538;DHT22;50159;49.426;11.182;2022-07-03T13:46:32;33.50;26.80
11538;DHT22;50159;49.426;11.182;2022-07-03T13:48:59;33.50;27.30
11538;DHT22;50159;49.426;11.182;2022-07-03T13:51:26;33.50;27.60
11538;DHT22;50159;49.426;11.182;2022-07-03T13:53:53;33.30;27.30
11538;DHT22;50159;49.426;11.182;2022-07-03T13:56:20;33.10;27.60
11538;DHT22;50159;49.426;11.182;2022-07-03T13:58:47;32.80;27.50
11538;DHT22;50159;49.426;11.182;2022-07-03T14:01:18;32.80;28.00
11538;DHT22;50159;49.426;11.182;2022-07-03T14:03:47;32.80;28.40
11538;DHT22;50159;49.426;11.182;2022-07-03T14:06:14;32.90;28.90
11538;DHT22;50159;49.426;11.182;2022-07-03T14:08:41;32.90;27.90
11538;DHT22;50159;49.426;11.182;2022-07-03T14:11:08;33.00;28.50
11538;DHT22;50159;49.426;11.182;2022-07-03T14:13:35;33.20;28.70
11538;DHT22;50159;49.426;11.182;2022-07-03T14:16:02;33.40;28.70
11538;DHT22;50159;49.426;11.182;2022-07-03T14:18:29;33.50;27.80
11538;DHT22;50159;49.426;11.182;2022-07-03T14:20:56;33.50;27.50
11538;DHT22;50159;49.426;11.182;2022-07-03T14:23:23;33.50;27.10
11538;DHT22;50159;49.426;11.182;2022-07-03T14:25:49;33.40;26.50
11538;DHT22;50159;49.426;11.182;2022-07-03T14:28:16;33.20;26.60
11538;DHT22;50159;49.426;11.182;2022-07-03T14:31:02;33.30;26.40
11538;DHT22;50159;49.426;11.182;2022-07-03T14:33:47;33.60;26.80
11538;DHT22;50159;49.426;11.182;2022-07-03T14:36:14;34.40;27.20
11538;DHT22;50159;49.426;11.182;2022-07-03T14:39:02;36.00;26.20
11538;DHT22;50159;49.426;11.182;2022-07-03T14:41:29;38.10;24.10
11538;DHT22;50159;49.426;11.182;2022-07-03T14:43:56;39.80;23.40
11538;DHT22;50159;49.426;11.182;2022-07-03T14:46:23;41.00;21.40
11538;DHT22;50159;49.426;11.182;2022-07-03T14:48:49;41.90;20.50
11538;DHT22;50159;49.426;11.182;2022-07-03T14:51:19;42.60;19.80
11538;DHT22;50159;49.426;11.182;2022-07-03T14:53:47;42.90;18.10
11538;DHT22;50159;49.426;11.182;2022-07-03T14:56:17;42.80;18.50
11538;DHT22;50159;49.426;11.182;2022-07-03T14:58:46;43.00;18.90
11538;DHT22;50159;49.426;11.182;2022-07-03T15:01:18;43.40;19.10
11538;DHT22;50159;49.426;11.182;2022-07-03T15:04:01;43.40;17.90
11538;DHT22;50159;49.426;11.182;2022-07-03T15:06:29;43.30;18.60
11538;DHT22;50159;49.426;11.182;2022-07-03T15:09:03;43.20;18.40
11538;DHT22;50159;49.426;11.182;2022-07-03T15:11:43;42.70;18.30
11538;DHT22;50159;49.426;11.182;2022-07-03T15:14:37;42.60;18.30
11538;DHT22;50159;49.426;11.182;2022-07-03T15:17:08;42.80;18.60
11538;DHT22;50159;49.426;11.182;2022-07-03T15:19:35;43.00;18.50
11538;DHT22;50159;49.426;11.182;2022-07-03T15:22:04;43.40;18.30
11538;DHT22;50159;49.426;11.182;2022-07-03T15:24:36;43.50;18.40
11538;DHT22;50159;49.426;11.182;2022-07-03T15:27:05;43.70;17.90
11538;DHT22;50159;49.426;11.182;2022-07-03T15:29:34;43.80;17.60
11538;DHT22;50159;49.426;11.182;2022-07-03T15:32:04;43.80;17.60
11538;DHT22;50159;49.426;11.182;2022-07-03T15:34:31;43.60;17.50
11538;DHT22;50159;49.426;11.182;2022-07-03T15:40:05;42.60;18.20
11538;DHT22;50159;49.426;11.182;2022-07-03T15:48:38;38.20;22.30
11538;DHT22;50159;49.426;11.182;2022-07-03T15:51:28;38.60;22.40
11538;DHT22;50159;49.426;11.182;2022-07-03T15:54:13;38.30;21.80
11538;DHT22;50159;49.426;11.182;2022-07-03T15:57:03;38.20;22.80
11538;DHT22;50159;49.426;11.182;2022-07-03T15:59:35;38.10;22.10
11538;DHT22;50159;49.426;11.182;2022-07-03T16:02:09;38.00;23.30
11538;DHT22;50159;49.426;11.182;2022-07-03T16:07:38;36.90;23.00
11538;DHT22;50159;49.426;11.182;2022-07-03T16:10:09;36.60;23.10
11538;DHT22;50159;49.426;11.182;2022-07-03T16:12:38;36.30;23.60
11538;DHT22;50159;49.426;11.182;2022-07-03T16:15:06;36.10;24.50
11538;DHT22;50159;49.426;11.182;2022-07-03T16:17:34;35.80;24.60
11538;DHT22;50159;49.426;11.182;2022-07-03T16:20:04;35.50;25.20
11538;DHT22;50159;49.426;11.182;2022-07-03T16:22:34;35.30;26.00
11538;DHT22;50159;49.426;11.182;2022-07-03T16:25:04;35.20;25.20
11538;DHT22;50159;49.426;11.182;2022-07-03T16:27:32;35.20;24.50
11538;DHT22;50159;49.426;11.182;2022-07-03T16:29:59;34.80;24.80
11538;DHT22;50159;49.426;11.182;2022-07-03T16:32:39;34.50;24.60
11538;DHT22;50159;49.426;11.182;2022-07-03T16:35:15;33.90;25.60
11538;DHT22;50159;49.426;11.182;2022-07-03T16:37:57;33.40;26.20
11538;DHT22;50159;49.426;11.182;2022-07-03T16:40:30;33.10;26.90
11538;DHT22;50159;49.426;11.182;2022-07-03T16:43:01;32.80;27.20
11538;DHT22;50159;49.426;11.182;2022-07-03T16:45:32;32.60;27.50
11538;DHT22;50159;49.426;11.182;2022-07-03T16:48:21;32.40;27.20
11538;DHT22;50159;49.426;11.182;2022-07-03T16:50:56;32.30;28.00
11538;DHT22;50159;49.426;11.182;2022-07-03T16:53:27;32.10;28.30
11538;DHT22;50159;49.426;11.182;2022-07-03T16:55:54;31.90;28.20
11538;DHT22;50159;49.426;11.182;2022-07-03T16:58:23;31.60;28.40
11538;DHT22;50159;49.426;11.182;2022-07-03T17:00:50;31.40;28.40
11538;DHT22;50159;49.426;11.182;2022-07-03T17:03:19;31.30;29.30
11538;DHT22;50159;49.426;11.182;2022-07-03T17:05:51;31.10;29.30
11538;DHT22;50159;49.426;11.182;2022-07-03T17:08:21;30.90;29.50
11538;DHT22;50159;49.426;11.182;2022-07-03T17:10:50;30.80;30.40